Almirante Padilla Airport

Airport
ICAO code: 
SKRH
IATA Code: 
RCH
Summary
ICAO Region: 
CARSAM
Territory: 
Location: 
Riohacha, Guajira Department
Serving: 
Riohacha
Elevation: 
43 ft
Coordinates: 
Aerial View: 
11° 31' 42.956" N, 72° 55' 9.018" W
Metar
Observation
SKRH 011500Z 12012KT 9999 FEW015 31/22 Q1014 RMK A2995
Station
Riohacha / Almirante Padilla
Date/Time
2021-12-01 15:00:00
Wind direction
120°
Wind speed
12 kts
Lowest cloud amount
few clouds
Temperature
31°C
Dew point
22°C
Humidity
58%
QNH
1014 hPa
Weather condition
n/a

Almirante Padilla Airport is an airport serving the Caribbean coastal city of Riohacha in the Guajira Department of Colombia. The airport is on the southwestern edge of the city.

Climatology

Semi-arid climate (Köppen climate classification BSh)

Runways

Designator Length Width Surface Rops
10/28 0 0 UNK Yes/Yes
9/27 1650 30 ASP No/No
Airport map: 
Aerial View: 

SKYbrary Partners:

Safety knowledge contributed by: